Time;durP1;ratioP1;P1;durP2;ratioP2;P2;SDS_P1;SDS_P2;PMS_P1;PMS_P2;Temp;Humidity;BMP_temperature;BMP_pressure;BME280_temperature;BME280_humidity;BME280_pressure;Samples;Min_cycle;Max_cycle;Signal;HPM_P1;HPM_P2
2021/01/08 00:00:04;;;;;;;63.15;24.92;;;-0.60;99.90;;;;;;4974604;28;20054;-80
2021/01/08 00:02:29;;;;;;;56.47;23.60;;;-0.60;99.90;;;;;;4974585;28;20026;-78
2021/01/08 00:04:55;;;;;;;56.88;25.20;;;-0.60;99.90;;;;;;4974527;28;20137;-79
2021/01/08 00:07:20;;;;;;;58.17;23.70;;;-0.60;99.90;;;;;;4973341;28;20474;-80
2021/01/08 00:09:46;;;;;;;54.60;22.75;;;-0.60;99.90;;;;;;4974559;28;20038;-78
2021/01/08 00:12:12;;;;;;;54.17;24.10;;;-0.60;99.90;;;;;;4974323;28;20026;-79
2021/01/08 00:14:37;;;;;;;53.63;23.23;;;-0.60;99.90;;;;;;4974331;28;20023;-78
2021/01/08 00:17:03;;;;;;;55.42;25.75;;;-0.60;99.90;;;;;;4974286;28;20101;-79
2021/01/08 00:19:29;;;;;;;53.90;23.83;;;-0.60;99.90;;;;;;4975526;28;20027;-79
2021/01/08 00:21:55;;;;;;;49.70;25.13;;;-0.60;99.90;;;;;;4974196;28;20030;-78
2021/01/08 00:24:21;;;;;;;51.10;23.77;;;-0.60;99.90;;;;;;4990272;28;20050;-79
2021/01/08 00:26:47;;;;;;;60.92;23.52;;;-0.60;99.90;;;;;;4974040;28;20492;-79
2021/01/08 00:29:15;;;;;;;48.05;22.08;;;-0.60;99.90;;;;;;4973990;28;20448;-79
2021/01/08 00:31:43;;;;;;;54.95;23.25;;;-0.70;99.90;;;;;;4973943;28;20502;-79
2021/01/08 00:34:10;;;;;;;49.80;22.30;;;-0.70;99.90;;;;;;4974955;28;20090;-79
2021/01/08 00:36:36;;;;;;;56.28;23.25;;;-0.80;99.90;;;;;;4975202;28;20026;-79
2021/01/08 00:39:04;;;;;;;53.70;22.40;;;-0.80;99.90;;;;;;4973794;28;20030;-79
2021/01/08 00:41:33;;;;;;;57.40;22.20;;;-0.80;99.90;;;;;;4975063;28;20058;-79
2021/01/08 00:44:03;;;;;;;55.58;23.33;;;-0.90;99.90;;;;;;4973986;28;20066;-79
2021/01/08 00:46:36;;;;;;;54.30;23.45;;;-0.90;99.90;;;;;;4989887;28;20015;-79
2021/01/08 00:49:03;;;;;;;58.88;24.73;;;-0.90;99.90;;;;;;4973739;28;20023;-79
2021/01/08 00:51:28;;;;;;;59.53;25.60;;;-0.90;99.90;;;;;;4973628;28;20054;-79
2021/01/08 00:53:54;;;;;;;54.53;24.00;;;-0.90;99.90;;;;;;4974803;28;20425;-79
2021/01/08 00:56:20;;;;;;;48.40;24.00;;;-0.90;99.90;;;;;;4989792;28;20015;-79
2021/01/08 00:58:46;;;;;;;53.85;21.92;;;-0.90;99.90;;;;;;4973483;28;20062;-78
2021/01/08 01:01:16;;;;;;;52.13;23.73;;;-0.80;99.90;;;;;;4973521;28;20053;-79
2021/01/08 01:03:42;;;;;;;47.63;23.92;;;-0.80;99.90;;;;;;4989667;28;20025;-78
2021/01/08 01:06:07;;;;;;;51.65;23.33;;;-0.80;99.90;;;;;;4973374;28;20027;-79
2021/01/08 01:08:33;;;;;;;53.30;23.77;;;-0.80;99.90;;;;;;4973304;28;20391;-78
2021/01/08 01:10:59;;;;;;;51.78;22.90;;;-0.90;99.90;;;;;;4973956;28;20376;-79
2021/01/08 01:13:25;;;;;;;48.17;21.58;;;-0.90;99.90;;;;;;4989444;28;20078;-78
2021/01/08 01:15:51;;;;;;;48.78;21.67;;;-0.90;99.90;;;;;;4973268;28;20022;-78
2021/01/08 01:18:17;;;;;;;56.58;22.92;;;-0.90;99.90;;;;;;4972875;28;20500;-78
2021/01/08 01:20:43;;;;;;;54.10;24.33;;;-0.90;99.90;;;;;;4973168;28;20076;-78
2021/01/08 01:23:09;;;;;;;46.25;24.08;;;-0.80;99.90;;;;;;4973073;28;20109;-78
2021/01/08 01:25:34;;;;;;;51.38;24.40;;;-0.80;99.90;;;;;;4974518;28;20026;-78
2021/01/08 01:28:00;;;;;;;48.92;23.33;;;-0.90;99.90;;;;;;4972936;28;20034;-78
2021/01/08 01:30:26;;;;;;;48.30;24.30;;;-0.90;99.90;;;;;;4973123;28;20480;-78
2021/01/08 01:32:52;;;;;;;50.17;21.75;;;-0.90;99.90;;;;;;4973005;28;20033;-77
2021/01/08 01:35:17;;;;;;;52.42;20.15;;;-0.90;99.90;;;;;;4973021;28;20026;-78
2021/01/08 01:37:43;;;;;;;47.05;21.27;;;-0.90;99.90;;;;;;4972965;28;20029;-78
2021/01/08 01:40:09;;;;;;;49.47;22.00;;;-0.90;99.90;;;;;;4972955;28;20030;-78
2021/01/08 01:42:35;;;;;;;47.05;21.52;;;-0.90;99.90;;;;;;4989068;28;20126;-78
2021/01/08 01:45:00;;;;;;;45.10;22.73;;;-0.80;99.90;;;;;;4972903;28;20575;-79
2021/01/08 01:47:27;;;;;;;40.53;20.33;;;-0.80;99.90;;;;;;4972840;28;20122;-80
2021/01/08 01:49:53;;;;;;;52.15;24.17;;;-0.80;99.90;;;;;;4972749;28;20130;-78
2021/01/08 01:52:19;;;;;;;50.60;21.48;;;-0.80;99.90;;;;;;4988988;28;20058;-79
2021/01/08 01:54:45;;;;;;;49.22;21.20;;;-0.90;99.90;;;;;;4972758;28;20023;-78
2021/01/08 01:57:11;;;;;;;45.95;21.45;;;-0.80;99.90;;;;;;4972804;28;20389;-77
2021/01/08 01:59:36;;;;;;;46.70;22.38;;;-0.90;99.90;;;;;;4972756;28;20019;-78
2021/01/08 02:02:18;;;;;;;50.85;21.63;;;-0.90;99.90;;;;;;4972996;28;20033;-79
2021/01/08 02:04:45;;;;;;;43.57;21.40;;;-0.90;99.90;;;;;;4972581;28;20082;-77
2021/01/08 02:07:11;;;;;;;48.33;22.80;;;-0.90;99.90;;;;;;4988801;28;20881;-78
2021/01/08 02:09:37;;;;;;;44.90;21.23;;;-0.90;99.90;;;;;;4972806;28;20074;-78
2021/01/08 02:12:03;;;;;;;43.53;20.15;;;-0.90;99.90;;;;;;4973913;28;20027;-79
2021/01/08 02:14:29;;;;;;;42.20;21.33;;;-0.90;99.90;;;;;;4973778;28;20117;-78
2021/01/08 02:16:57;;;;;;;49.55;21.25;;;-0.90;99.90;;;;;;4973864;28;20388;-78
2021/01/08 02:19:46;;;;;;;47.95;20.73;;;-0.90;99.90;;;;;;4973855;28;20063;-77
2021/01/08 02:22:21;;;;;;;45.80;19.55;;;-0.90;99.90;;;;;;4972596;28;20053;-78
2021/01/08 02:25:15;;;;;;;44.95;20.30;;;-0.90;99.90;;;;;;4973816;28;20027;-78
2021/01/08 02:27:51;;;;;;;52.40;22.25;;;-0.90;99.90;;;;;;4973010;28;20133;-78
2021/01/08 02:30:17;;;;;;;49.90;21.42;;;-0.90;99.90;;;;;;4974249;28;20038;-78
2021/01/08 02:32:43;;;;;;;50.83;21.42;;;-0.90;99.90;;;;;;4976119;28;20496;-78
2021/01/08 02:35:10;;;;;;;51.40;20.80;;;-0.90;99.90;;;;;;4977464;28;20069;-78
2021/01/08 02:37:41;;;;;;;48.05;23.23;;;-0.90;99.90;;;;;;4976007;28;20385;-78
2021/01/08 02:40:12;;;;;;;51.60;23.98;;;-0.90;99.90;;;;;;4977376;28;20026;-78
2021/01/08 02:42:42;;;;;;;43.67;20.05;;;-1.00;99.90;;;;;;4976046;28;20015;-78
2021/01/08 02:45:08;;;;;;;46.72;22.25;;;-1.00;99.90;;;;;;4975967;28;20027;-78
2021/01/08 02:47:34;;;;;;;49.75;22.55;;;-1.00;99.90;;;;;;4976250;28;20113;-78
2021/01/08 02:49:59;;;;;;;52.85;24.55;;;-1.00;99.90;;;;;;4975926;28;20058;-79
2021/01/08 02:52:27;;;;;;;48.22;20.98;;;-1.00;99.90;;;;;;4975846;28;20023;-78
2021/01/08 02:54:54;;;;;;;54.13;24.70;;;-0.90;99.90;;;;;;4975760;28;20035;-78
2021/01/08 02:57:20;;;;;;;53.55;23.45;;;-1.00;99.90;;;;;;4975736;28;20050;-79
2021/01/08 02:59:46;;;;;;;54.50;23.85;;;-1.00;99.90;;;;;;4975716;28;20114;-77
2021/01/08 03:02:12;;;;;;;51.75;24.23;;;-1.00;99.90;;;;;;4975689;28;20126;-78
2021/01/08 03:04:38;;;;;;;55.20;23.25;;;-1.00;99.90;;;;;;4975497;28;20404;-78
2021/01/08 03:07:05;;;;;;;49.45;24.80;;;-1.00;99.90;;;;;;4975501;28;20040;-78
2021/01/08 03:09:31;;;;;;;57.28;25.70;;;-1.00;99.90;;;;;;4975721;28;20034;-77
2021/01/08 03:11:58;;;;;;;47.95;22.23;;;-1.00;99.90;;;;;;4975537;28;20027;-78
2021/01/08 03:14:24;;;;;;;56.78;23.77;;;-1.00;99.90;;;;;;4975399;28;20499;-78
2021/01/08 03:16:50;;;;;;;59.42;24.15;;;-1.00;99.90;;;;;;4975430;28;20019;-79
2021/01/08 03:19:15;;;;;;;63.50;33.70;;;-1.00;99.90;;;;;;4975298;28;20026;-78
2021/01/08 03:21:43;;;;;;;63.90;33.22;;;-1.00;99.90;;;;;;4976670;28;20049;-78
2021/01/08 03:24:09;;;;;;;62.17;29.83;;;-1.00;99.90;;;;;;4975199;28;20019;-78
2021/01/08 03:26:35;;;;;;;59.22;27.50;;;-1.00;99.90;;;;;;4975217;28;20503;-78
2021/01/08 03:29:01;;;;;;;56.22;24.42;;;-1.00;99.90;;;;;;4976442;28;20019;-78
2021/01/08 03:31:27;;;;;;;64.00;29.10;;;-1.00;99.90;;;;;;4975210;28;20027;-78
2021/01/08 03:33:53;;;;;;;64.30;28.77;;;-1.00;99.90;;;;;;4975102;28;20109;-78
2021/01/08 03:36:19;;;;;;;67.03;27.48;;;-1.00;99.90;;;;;;4975081;28;20110;-79
2021/01/08 03:38:44;;;;;;;70.07;31.92;;;-1.00;99.90;;;;;;4975052;28;20143;-78
2021/01/08 03:41:10;;;;;;;67.72;32.10;;;-1.00;99.90;;;;;;4974818;28;20027;-78
2021/01/08 03:43:36;;;;;;;55.25;25.00;;;-0.90;99.90;;;;;;4976213;28;20031;-78
2021/01/08 03:46:01;;;;;;;57.58;26.13;;;-1.00;99.90;;;;;;4974895;28;20031;-78
2021/01/08 03:48:27;;;;;;;54.42;26.00;;;-1.00;99.90;;;;;;4974763;28;20108;-78
2021/01/08 03:50:52;;;;;;;59.65;27.38;;;-1.00;99.90;;;;;;4974833;28;20023;-78
2021/01/08 03:53:18;;;;;;;62.22;29.90;;;-1.00;99.90;;;;;;4990868;28;20026;-78
2021/01/08 03:55:44;;;;;;;66.10;29.10;;;-0.90;99.90;;;;;;4974713;28;20073;-78
2021/01/08 03:58:09;;;;;;;62.35;28.25;;;-1.00;99.90;;;;;;4975909;28;20026;-77
2021/01/08 04:00:35;;;;;;;52.55;24.65;;;-1.00;99.90;;;;;;4975993;28;20170;-77
2021/01/08 04:03:00;;;;;;;65.57;27.30;;;-1.00;99.90;;;;;;4974590;28;20023;-78
2021/01/08 04:05:26;;;;;;;57.47;25.52;;;-1.00;99.90;;;;;;4975852;28;20488;-77
2021/01/08 04:07:52;;;;;;;61.13;27.75;;;-1.00;99.90;;;;;;4974020;28;20049;-78
2021/01/08 04:10:17;;;;;;;53.55;24.88;;;-1.00;99.90;;;;;;4990196;28;20033;-78
2021/01/08 04:12:43;;;;;;;56.75;24.02;;;-1.00;99.90;;;;;;4974390;28;20015;-77
2021/01/08 04:15:09;;;;;;;60.65;26.30;;;-1.00;99.90;;;;;;4975621;28;20023;-78
2021/01/08 04:17:34;;;;;;;50.47;24.10;;;-0.90;99.90;;;;;;4975602;28;20031;-77
2021/01/08 04:20:00;;;;;;;55.85;24.98;;;-0.90;99.90;;;;;;4975503;28;20026;-77
2021/01/08 04:22:25;;;;;;;59.78;25.00;;;-0.90;99.90;;;;;;4974242;28;20604;-77
2021/01/08 04:24:51;;;;;;;47.28;22.85;;;-0.90;99.90;;;;;;4975381;28;20030;-78
2021/01/08 04:27:17;;;;;;;62.08;26.48;;;-0.90;99.90;;;;;;4974068;28;20031;-78
2021/01/08 04:29:42;;;;;;;55.30;22.98;;;-0.80;99.90;;;;;;4974028;28;20085;-78
2021/01/08 04:32:08;;;;;;;51.15;22.10;;;-0.80;99.90;;;;;;4975548;28;20014;-78
2021/01/08 04:34:33;;;;;;;56.38;25.85;;;-0.80;99.90;;;;;;4973993;28;20027;-77
2021/01/08 04:36:59;;;;;;;57.78;27.98;;;-0.80;99.90;;;;;;4973953;28;20026;-78
2021/01/08 04:39:25;;;;;;;49.05;23.30;;;-0.80;99.90;;;;;;4973899;28;20030;-77
2021/01/08 04:41:51;;;;;;;54.90;25.58;;;-0.80;99.90;;;;;;4975125;28;20069;-79
2021/01/08 04:44:18;;;;;;;56.78;25.08;;;-0.80;99.90;;;;;;4973718;28;20026;-78
2021/01/08 04:46:46;;;;;;;62.97;26.60;;;-0.80;99.90;;;;;;4989885;28;20030;-78
2021/01/08 04:49:12;;;;;;;56.40;27.52;;;-0.70;99.90;;;;;;4973706;28;20039;-78
2021/01/08 04:51:40;;;;;;;70.45;33.90;;;-0.70;99.90;;;;;;4973700;28;20029;-78
2021/01/08 04:54:06;;;;;;;73.20;33.40;;;-0.70;99.90;;;;;;4989714;28;20105;-78
2021/01/08 04:56:38;;;;;;;60.97;27.90;;;-0.80;99.90;;;;;;4973649;28;20501;-78
2021/01/08 04:59:04;;;;;;;63.97;29.80;;;-0.80;99.90;;;;;;4974904;28;20151;-78
2021/01/08 05:01:30;;;;;;;63.63;26.58;;;-0.70;99.90;;;;;;4973544;28;20266;-78
2021/01/08 05:03:56;;;;;;;57.58;27.52;;;-0.70;99.90;;;;;;4973458;28;20031;-78
2021/01/08 05:06:22;;;;;;;64.20;28.27;;;-0.70;99.90;;;;;;4973427;28;20034;-77
2021/01/08 05:08:48;;;;;;;69.10;29.15;;;-0.70;99.90;;;;;;4989267;28;20125;-78
2021/01/08 05:11:30;;;;;;;67.55;32.40;;;-0.80;99.90;;;;;;4989599;28;20449;-79
2021/01/08 05:14:00;;;;;;;73.50;32.97;;;-0.80;99.90;;;;;;4973297;28;20023;-78
2021/01/08 05:16:28;;;;;;;72.25;32.53;;;-0.80;99.90;;;;;;4973316;28;20030;-78
2021/01/08 05:18:56;;;;;;;78.43;30.88;;;-0.80;99.90;;;;;;4973139;28;20054;-79
2021/01/08 05:21:25;;;;;;;63.50;28.42;;;-0.80;99.90;;;;;;4972496;28;20033;-78
2021/01/08 05:23:54;;;;;;;66.20;32.25;;;-0.80;99.90;;;;;;4973143;28;20023;-77
2021/01/08 05:26:21;;;;;;;68.13;30.23;;;-0.80;99.90;;;;;;4973133;28;20572;-78
2021/01/08 05:28:48;;;;;;;64.25;29.00;;;-0.80;99.90;;;;;;4973000;28;20026;-77
2021/01/08 05:31:15;;;;;;;64.13;29.55;;;-0.80;99.90;;;;;;4974319;28;20030;-79
2021/01/08 05:33:41;;;;;;;64.63;28.65;;;-0.80;99.90;;;;;;4973035;28;20027;-78
2021/01/08 05:36:09;;;;;;;65.25;29.52;;;-0.90;99.90;;;;;;4973024;28;20392;-79
2021/01/08 05:38:35;;;;;;;58.65;26.35;;;-0.80;99.90;;;;;;4974274;28;20019;-79
2021/01/08 05:41:02;;;;;;;62.15;28.02;;;-0.80;99.90;;;;;;4972950;28;20476;-78
2021/01/08 05:43:29;;;;;;;69.10;32.17;;;-0.80;99.90;;;;;;4992253;28;20073;-78
2021/01/08 05:46:07;;;;;;;68.47;29.67;;;-0.80;99.90;;;;;;4993575;28;20030;-77
2021/01/08 05:48:34;;;;;;;71.28;29.13;;;-0.80;99.90;;;;;;4992298;28;20042;-78
2021/01/08 05:51:00;;;;;;;61.85;28.65;;;-0.80;99.90;;;;;;4993544;28;20022;-78
2021/01/08 05:53:26;;;;;;;67.28;28.58;;;-0.80;99.90;;;;;;4992200;28;20088;-77
2021/01/08 05:55:52;;;;;;;69.18;30.83;;;-0.90;99.90;;;;;;4992220;28;20018;-79
2021/01/08 05:58:21;;;;;;;54.63;28.83;;;-0.90;99.90;;;;;;4992157;28;20031;-78
2021/01/08 06:01:00;;;;;;;72.35;30.75;;;-0.90;99.90;;;;;;4992152;28;20500;-78
2021/01/08 06:03:26;;;;;;;65.90;28.40;;;-0.90;99.90;;;;;;4991252;28;20022;-78
2021/01/08 06:06:02;;;;;;;64.03;28.08;;;-0.90;99.90;;;;;;4976756;28;20015;-78
2021/01/08 06:08:32;;;;;;;63.75;27.45;;;-0.90;99.90;;;;;;4977843;28;20042;-78
2021/01/08 06:11:00;;;;;;;60.80;27.80;;;-0.90;99.90;;;;;;4976975;28;20023;-78
2021/01/08 06:13:34;;;;;;;67.40;29.95;;;-0.90;99.90;;;;;;4976576;28;20023;-78
2021/01/08 06:16:04;;;;;;;79.47;36.15;;;-0.90;99.90;;;;;;4976520;28;20030;-78
2021/01/08 06:18:35;;;;;;;113.40;51.40;;;-0.90;99.90;;;;;;4976466;28;20011;-78
2021/01/08 06:21:06;;;;;;;122.17;49.50;;;-0.90;99.90;;;;;;4976529;28;20071;-78
2021/01/08 06:23:39;;;;;;;78.57;34.92;;;-0.90;99.90;;;;;;4976436;28;20031;-78
2021/01/08 06:26:08;;;;;;;65.90;28.85;;;-0.90;99.90;;;;;;4976407;28;20030;-77
2021/01/08 06:28:41;;;;;;;63.88;29.45;;;-0.90;99.90;;;;;;4977515;28;20050;-78
2021/01/08 06:31:15;;;;;;;60.75;26.48;;;-0.80;99.90;;;;;;4977780;28;20483;-78
2021/01/08 06:33:50;;;;;;;69.95;29.88;;;-0.90;99.90;;;;;;4976255;28;20023;-78
2021/01/08 06:36:21;;;;;;;62.10;27.33;;;-0.90;99.90;;;;;;4976196;28;20122;-78
2021/01/08 06:38:53;;;;;;;61.92;27.63;;;-0.90;99.90;;;;;;4976112;28;20038;-78
2021/01/08 06:41:19;;;;;;;67.65;27.38;;;-0.90;99.90;;;;;;4978355;28;20546;-78
2021/01/08 06:43:55;;;;;;;59.78;25.58;;;-0.90;99.90;;;;;;4988791;28;20023;-78
2021/01/08 06:46:38;;;;;;;55.53;26.55;;;-0.80;99.90;;;;;;4986088;28;20019;-78
2021/01/08 06:49:11;;;;;;;66.72;30.70;;;-0.80;99.90;;;;;;4977581;28;20034;-78
2021/01/08 06:51:39;;;;;;;69.38;31.80;;;-0.90;99.90;;;;;;4985127;28;20045;-78
2021/01/08 06:54:05;;;;;;;70.30;31.65;;;-0.90;99.90;;;;;;4983257;28;20011;-78
2021/01/08 06:56:33;;;;;;;73.45;35.10;;;-0.80;99.90;;;;;;4975612;28;20034;-78
2021/01/08 06:59:00;;;;;;;78.25;38.70;;;-0.80;99.90;;;;;;4975128;28;20437;-78
2021/01/08 07:01:45;;;;;;;78.35;39.42;;;-0.80;99.90;;;;;;4975663;28;20412;-78
2021/01/08 07:04:11;;;;;;;76.95;37.22;;;-0.80;99.90;;;;;;4978057;28;20042;-78
2021/01/08 07:06:37;;;;;;;87.43;39.65;;;-0.70;99.90;;;;;;4975362;28;20070;-77
2021/01/08 07:09:05;;;;;;;92.05;43.15;;;-0.70;99.90;;;;;;4974308;28;20043;-78
2021/01/08 07:11:32;;;;;;;145.63;61.00;;;-0.70;99.90;;;;;;4975568;28;20031;-78
2021/01/08 07:14:09;;;;;;;125.85;55.92;;;-0.70;99.90;;;;;;4975419;28;20023;-78
2021/01/08 07:16:42;;;;;;;122.25;49.55;;;-0.70;99.90;;;;;;4984316;28;20109;-84
2021/01/08 07:19:13;;;;;;;123.65;52.90;;;-0.60;99.90;;;;;;4987060;28;20538;-82
2021/01/08 07:21:47;;;;;;;115.85;51.05;;;-0.60;99.90;;;;;;4989201;28;20058;-82
2021/01/08 07:24:14;;;;;;;107.70;45.83;;;-0.60;99.90;;;;;;4978038;28;20073;-83
2021/01/08 07:26:40;;;;;;;98.53;44.00;;;-0.50;99.90;;;;;;4987472;28;20337;-81
2021/01/08 07:29:08;;;;;;;101.88;48.10;;;-0.50;99.90;;;;;;4990382;28;20034;-82
2021/01/08 07:31:35;;;;;;;103.63;47.15;;;-0.50;99.90;;;;;;4974112;28;20054;-82
2021/01/08 07:34:04;;;;;;;94.15;41.30;;;-0.50;99.90;;;;;;4974198;28;20370;-82
2021/01/08 07:36:32;;;;;;;85.63;37.72;;;-0.40;99.90;;;;;;4974695;28;20026;-83
2021/01/08 07:38:58;;;;;;;81.47;36.17;;;-0.40;99.90;;;;;;4976097;28;20023;-82
2021/01/08 07:41:40;;;;;;;159.55;62.83;;;-0.40;99.90;;;;;;4974592;28;20027;-82
2021/01/08 07:44:32;;;;;;;183.10;70.57;;;-0.40;99.90;;;;;;4972952;28;20034;-82
2021/01/08 07:47:18;;;;;;;147.65;60.55;;;-0.30;99.90;;;;;;4973716;28;20428;-82
2021/01/08 07:49:44;;;;;;;121.03;52.40;;;-0.30;99.90;;;;;;4974857;28;20041;-82
2021/01/08 07:52:09;;;;;;;106.38;46.58;;;-0.30;99.90;;;;;;4989704;28;20114;-82
2021/01/08 07:54:53;;;;;;;102.50;48.58;;;-0.20;99.90;;;;;;4989700;28;20476;-82
2021/01/08 07:57:19;;;;;;;88.75;38.95;;;-0.20;99.90;;;;;;4975980;28;20404;-82
2021/01/08 07:59:45;;;;;;;90.43;41.35;;;-0.20;99.90;;;;;;4974337;28;20592;-82
2021/01/08 08:02:10;;;;;;;95.13;44.30;;;-0.10;99.90;;;;;;4974371;28;20121;-82
2021/01/08 08:04:37;;;;;;;93.45;41.05;;;-0.10;99.90;;;;;;4975726;28;20062;-82
2021/01/08 08:07:03;;;;;;;100.43;40.58;;;0.00;99.90;;;;;;4990137;28;20023;-82
2021/01/08 08:09:28;;;;;;;91.88;37.42;;;0.00;99.90;;;;;;4975415;28;20035;-82
2021/01/08 08:11:55;;;;;;;97.57;37.70;;;0.00;99.90;;;;;;4974249;28;20027;-82
2021/01/08 08:14:24;;;;;;;86.57;36.83;;;0.10;99.90;;;;;;4975409;28;20034;-83
2021/01/08 08:16:50;;;;;;;84.88;35.30;;;0.10;99.90;;;;;;4975448;28;20369;-82
2021/01/08 08:19:16;;;;;;;80.80;32.28;;;0.20;99.90;;;;;;4973740;28;20512;-83
2021/01/08 08:21:49;;;;;;;74.20;30.95;;;0.20;99.90;;;;;;4974943;28;20022;-82
2021/01/08 08:24:18;;;;;;;;;;;0.20;99.90;;;;;;4990573;28;20158;-82
2021/01/08 08:26:45;;;;;;;66.50;30.48;;;0.30;99.90;;;;;;4974759;28;19945;-82
2021/01/08 08:29:11;;;;;;;59.38;26.38;;;0.30;99.90;;;;;;4974741;28;20108;-82
2021/01/08 08:31:38;;;;;;;54.38;27.25;;;0.30;99.90;;;;;;4973890;28;20480;-82
2021/01/08 08:34:06;;;;;;;55.75;27.73;;;0.40;99.90;;;;;;4989895;28;20403;-82
2021/01/08 08:36:32;;;;;;;65.65;29.05;;;0.40;99.90;;;;;;4973558;28;20046;-83
2021/01/08 08:39:12;;;;;;;70.25;29.27;;;0.40;99.90;;;;;;4973681;28;20029;-82
2021/01/08 08:41:40;;;;;;;61.75;29.77;;;0.50;99.90;;;;;;4975012;28;20019;-82
2021/01/08 08:44:13;;;;;;;56.63;27.33;;;0.50;99.90;;;;;;4974874;28;20078;-83
2021/01/08 08:46:48;;;;;;;72.47;32.08;;;0.50;99.90;;;;;;4989890;28;20404;-82
2021/01/08 08:49:29;;;;;;;66.07;30.33;;;0.60;99.90;;;;;;4973487;28;20034;-82
2021/01/08 08:51:55;;;;;;;61.90;28.95;;;0.70;99.90;;;;;;4973250;28;20026;-82
2021/01/08 08:54:23;;;;;;;82.13;35.63;;;0.80;99.90;;;;;;4974719;28;20019;-81
2021/01/08 08:56:53;;;;;;;79.15;38.08;;;0.80;99.90;;;;;;4973413;28;20082;-82
2021/01/08 08:59:38;;;;;;;67.03;30.23;;;0.80;99.90;;;;;;4974613;28;20027;-82
2021/01/08 09:02:21;;;;;;;63.53;29.95;;;0.80;99.90;;;;;;4973400;28;20972;-82
2021/01/08 09:05:00;;;;;;;53.50;26.77;;;0.90;99.90;;;;;;4974532;28;20023;-82
2021/01/08 09:07:50;;;;;;;57.28;28.85;;;0.80;99.90;;;;;;4972888;28;20054;-82
2021/01/08 09:10:16;;;;;;;55.17;28.05;;;0.90;99.90;;;;;;4989384;28;20396;-82
2021/01/08 09:13:07;;;;;;;63.45;28.60;;;0.90;99.90;;;;;;4973113;28;20023;-82
2021/01/08 09:15:44;;;;;;;53.55;27.27;;;0.90;99.90;;;;;;4973337;28;20038;-82
2021/01/08 09:18:11;;;;;;;57.13;26.65;;;0.90;99.90;;;;;;4973136;28;20023;-83
2021/01/08 09:20:48;;;;;;;49.97;25.88;;;0.90;99.90;;;;;;4988954;28;20023;-83
2021/01/08 09:23:14;;;;;;;55.78;26.25;;;0.90;99.90;;;;;;4972835;28;20502;-82
2021/01/08 09:25:39;;;;;;;54.38;28.45;;;1.00;99.90;;;;;;4973066;28;20031;-82
2021/01/08 09:28:05;;;;;;;55.88;25.83;;;1.00;99.90;;;;;;4974041;28;20085;-82
2021/01/08 09:30:31;;;;;;;55.42;27.45;;;1.00;99.90;;;;;;4973229;28;20029;-82
2021/01/08 09:32:57;;;;;;;55.78;26.05;;;1.00;99.90;;;;;;4988808;28;20030;-82
2021/01/08 09:35:22;;;;;;;57.30;26.98;;;1.00;99.90;;;;;;4988556;28;20023;-82
2021/01/08 09:37:53;;;;;;;60.70;27.80;;;1.00;99.90;;;;;;4972715;28;20023;-82
2021/01/08 09:40:20;;;;;;;63.22;25.83;;;0.90;99.90;;;;;;4972589;28;20034;-83
2021/01/08 09:42:46;;;;;;;50.53;25.98;;;1.00;99.90;;;;;;4973895;28;20022;-82
2021/01/08 09:45:20;;;;;;;54.97;26.88;;;1.00;99.90;;;;;;4976600;28;20019;-82
2021/01/08 09:47:46;;;;;;;59.13;26.15;;;1.00;99.90;;;;;;4973762;28;20042;-82
2021/01/08 09:50:25;;;;;;;58.33;27.23;;;1.10;99.90;;;;;;4973590;28;20015;-82
2021/01/08 09:52:52;;;;;;;84.30;40.75;;;1.10;99.90;;;;;;4973797;28;20416;-82
2021/01/08 09:55:29;;;;;;;57.92;28.88;;;1.20;99.90;;;;;;4988711;28;20081;-82
2021/01/08 09:58:00;;;;;;;57.88;28.38;;;1.20;99.90;;;;;;4972587;28;20088;-83
2021/01/08 10:00:32;;;;;;;62.75;28.95;;;1.10;99.90;;;;;;4974016;28;20031;-83
2021/01/08 10:02:58;;;;;;;54.47;27.73;;;1.10;99.90;;;;;;4972561;28;20019;-83
2021/01/08 10:05:31;;;;;;;57.97;27.48;;;1.10;99.90;;;;;;4973809;28;20069;-82
2021/01/08 10:08:00;;;;;;;62.15;29.52;;;1.00;99.90;;;;;;4971831;28;20121;-83
2021/01/08 10:10:25;;;;;;;56.38;27.83;;;1.10;99.90;;;;;;5003609;28;20160;-82
2021/01/08 10:12:52;;;;;;;61.53;31.23;;;1.10;99.90;;;;;;4992763;28;20101;-82
2021/01/08 10:15:19;;;;;;;62.22;27.73;;;1.10;99.90;;;;;;4991746;28;20023;-82
2021/01/08 10:17:46;;;;;;;52.95;25.60;;;1.00;99.90;;;;;;4991570;28;20026;-82
2021/01/08 10:20:15;;;;;;;52.75;25.33;;;1.10;99.90;;;;;;4991383;28;20031;-82
2021/01/08 10:22:47;;;;;;;61.72;28.98;;;1.00;99.90;;;;;;4993028;28;20034;-82
2021/01/08 10:25:30;;;;;;;69.93;29.85;;;1.00;99.90;;;;;;4992976;28;20472;-82
2021/01/08 10:28:19;;;;;;;68.13;31.33;;;1.00;99.90;;;;;;4991412;28;20038;-82
2021/01/08 10:30:47;;;;;;;62.45;28.17;;;0.90;99.90;;;;;;4991664;28;20022;-82
2021/01/08 10:33:14;;;;;;;82.90;37.28;;;0.90;99.90;;;;;;4992861;28;20053;-83
2021/01/08 10:35:45;;;;;;;66.43;29.00;;;0.80;99.90;;;;;;4991672;28;20018;-82
2021/01/08 10:38:10;;;;;;;83.50;36.88;;;0.80;99.90;;;;;;4992419;28;20480;-83
2021/01/08 10:40:36;;;;;;;76.50;33.53;;;0.70;99.90;;;;;;4992534;28;20027;-81
2021/01/08 10:43:02;;;;;;;78.25;36.08;;;0.70;99.90;;;;;;4991444;28;20050;-82
2021/01/08 10:45:27;;;;;;;96.72;43.42;;;0.70;99.90;;;;;;4992707;28;20116;-81
2021/01/08 10:47:53;;;;;;;72.68;33.00;;;0.70;99.90;;;;;;4991363;28;20038;-81
2021/01/08 10:50:19;;;;;;;71.60;31.35;;;0.70;99.90;;;;;;4991371;28;20498;-81
2021/01/08 10:52:45;;;;;;;74.28;31.75;;;0.80;99.90;;;;;;4994470;28;20015;-82
2021/01/08 10:55:11;;;;;;;74.65;33.20;;;0.80;99.90;;;;;;4995613;28;20526;-82
2021/01/08 10:57:38;;;;;;;57.35;28.15;;;0.80;99.90;;;;;;4994820;28;20483;-82
2021/01/08 11:00:09;;;;;;;70.88;31.83;;;0.80;99.90;;;;;;4992676;28;20506;-82
2021/01/08 11:02:35;;;;;;;61.88;30.90;;;0.90;99.90;;;;;;4994726;28;20024;-81
2021/01/08 11:05:02;;;;;;;52.97;26.55;;;1.00;99.90;;;;;;4994951;28;20023;-82
2021/01/08 11:07:27;;;;;;;49.72;24.98;;;1.10;99.90;;;;;;4994215;28;20503;-82
2021/01/08 11:09:53;;;;;;;59.05;25.23;;;1.30;99.90;;;;;;4996530;28;20038;-81
2021/01/08 11:12:18;;;;;;;56.15;24.77;;;1.40;99.90;;;;;;4995803;28;20105;-82
2021/01/08 11:14:44;;;;;;;52.20;24.25;;;1.60;99.90;;;;;;4985289;28;20027;-82
2021/01/08 11:17:10;;;;;;;57.70;27.50;;;1.80;99.90;;;;;;4991476;28;20027;-82
2021/01/08 11:19:36;;;;;;;48.42;21.33;;;1.90;99.90;;;;;;4975091;28;20487;-81
2021/01/08 11:22:02;;;;;;;46.10;21.05;;;1.90;99.90;;;;;;4975692;28;20035;-82
2021/01/08 11:24:28;;;;;;;44.78;23.67;;;2.00;99.90;;;;;;4991442;28;20030;-82
2021/01/08 11:26:53;;;;;;;46.53;24.10;;;1.90;99.90;;;;;;4973890;28;20538;-82
2021/01/08 11:29:19;;;;;;;52.30;22.08;;;1.90;99.90;;;;;;4974563;28;20074;-79
2021/01/08 11:31:44;;;;;;;39.33;20.13;;;2.00;99.90;;;;;;4974954;28;20023;-80
2021/01/08 11:34:10;;;;;;;51.45;25.67;;;2.00;99.90;;;;;;4974807;28;20034;-80
2021/01/08 11:36:38;;;;;;;43.63;20.85;;;2.00;99.90;;;;;;4975818;28;20031;-80
2021/01/08 11:39:06;;;;;;;39.83;19.45;;;2.00;99.90;;;;;;4971585;28;20097;-80
2021/01/08 11:41:32;;;;;;;53.15;21.77;;;2.10;99.90;;;;;;4991092;28;20061;-80
2021/01/08 11:43:57;;;;;;;52.25;22.95;;;2.10;99.90;;;;;;4974806;28;20050;-80
2021/01/08 11:46:23;;;;;;;52.25;25.85;;;2.10;99.90;;;;;;4975994;28;20035;-80
2021/01/08 11:48:52;;;;;;;41.63;20.75;;;2.20;99.90;;;;;;4975771;28;20424;-81
2021/01/08 11:51:24;;;;;;;46.42;20.75;;;2.20;99.90;;;;;;4990915;28;20019;-81
2021/01/08 11:53:51;;;;;;;82.30;40.17;;;2.20;99.90;;;;;;4975570;28;20030;-80
2021/01/08 11:56:25;;;;;;;55.53;26.35;;;2.10;99.90;;;;;;4975574;28;20022;-80
2021/01/08 11:58:51;;;;;;;44.88;21.63;;;2.10;99.90;;;;;;4974574;28;20023;-80
2021/01/08 12:01:16;;;;;;;38.97;18.33;;;2.10;99.90;;;;;;4975651;28;20358;-80
2021/01/08 12:03:42;;;;;;;39.42;18.65;;;2.10;99.90;;;;;;4974388;28;20027;-81
2021/01/08 12:06:09;;;;;;;36.45;18.13;;;2.10;99.90;;;;;;4974363;28;20077;-81
2021/01/08 12:08:38;;;;;;;39.35;18.00;;;2.10;99.90;;;;;;4973846;28;20046;-82
2021/01/08 12:11:04;;;;;;;79.35;32.08;;;2.10;97.20;;;;;;4975337;28;20389;-80
2021/01/08 12:13:30;;;;;;;50.55;24.55;;;2.20;97.50;;;;;;4975006;28;20093;-81
2021/01/08 12:15:56;;;;;;;43.38;19.48;;;2.20;98.50;;;;;;4988859;28;20384;-81
2021/01/08 12:18:21;;;;;;;34.08;15.65;;;2.20;93.90;;;;;;4974056;28;20019;-81
2021/01/08 12:20:48;;;;;;;34.45;15.50;;;2.10;96.50;;;;;;4971207;28;20476;-81
2021/01/08 12:23:14;;;;;;;47.47;23.75;;;2.10;96.60;;;;;;4971582;28;20086;-82
2021/01/08 12:25:43;;;;;;;35.95;17.65;;;2.10;95.30;;;;;;4971988;28;20023;-81
2021/01/08 12:28:10;;;;;;;37.15;16.58;;;2.10;95.60;;;;;;4971598;28;20533;-81
2021/01/08 12:30:36;;;;;;;29.23;15.55;;;2.20;96.80;;;;;;4971952;28;20045;-81
2021/01/08 12:33:03;;;;;;;28.33;15.52;;;2.20;96.10;;;;;;4971816;28;20034;-81
2021/01/08 12:35:30;;;;;;;40.83;20.55;;;2.20;97.70;;;;;;4971815;28;20019;-81